Accueil
METAR-TAF:

METAR-TAF

Aéroports :

Røst, Norvège

latitude: 67-31N, longitude: 012-06E, altitude: 4 m

Observation

Le bulletin a été fait il y a 12 heures et 33 minutes, à 08:20 UTC
Vent 12 kt de sud
Température 12°C
Humidité 82%
Pression 1006 hPa
Visibilité 10 km ou plus
Quelques nuages à une hauteur de 1500 ft, Cumulonimbus.
Nuages épars à une hauteur de 2000 ft
Nuages fragmentés à une hauteur de 5500 ft
averses à proximité

METAR: ENRS 110820Z 17012KT 9999 VCSH FEW015CB SCT020 BKN055 12/09 Q1006

Heure: 22:53 (20:53 UTC)


TAF: absent

Observations et prévisions météorologiques de plus de 4000 aéroports (messages METAR et TAF).

Les stations disponibles sont représentées par des disques jaunes et rouges sur la carte.

Passer la souris dessus pour voir le nom de la station.

Cliquer dessus pour voir les observations et prévisions météorologiques.

Pour changer de carte: cliquez sur les boutons verts avec une croix noire pour zoomer, sur le bouton vert avec un tiret pour effectuer un zoom arrière, ou sur les flèches vertes pour les cartes adjacentes.


METAR-TAF: